Date,TemperatureHighF,TemperatureAvgF,TemperatureLowF,DewpointHighF,DewpointAvgF,DewpointLowF,HumidityHigh,HumidityAvg,HumidityLow,PressureMaxIn,PressureMinIn,WindSpeedMaxMPH,WindSpeedAvgMPH,GustSpeedMaxMPH,PrecipitationSumIn
2013-1-1,15.0,1.6,-17.0,7.0,-6.7,-25.0,83,68,42,0.00,40.00,8,3,17,0.00
2013-1-2,16.0,14.0,11.0,12.0,9.9,7.0,88,83,76,0.00,40.00,6,3,13,0.00
2013-1-3,24.0,16.1,11.0,14.0,9.5,3.0,88,75,53,0.00,40.00,8,5,25,0.00
2013-1-4,36.0,18.1,4.0,18.0,10.5,0.0,87,74,44,0.00,40.00,6,3,17,0.01
2013-1-5,34.0,15.2,0.0,16.0,7.5,-5.0,86,73,44,0.00,40.00,7,2,16,0.01
2013-1-6,29.0,20.6,10.0,20.0,13.1,6.0,85,73,50,0.00,40.00,7,4,14,0.00
2013-1-7,37.0,24.4,14.0,21.0,15.4,2.0,88,69,53,0.00,40.00,10,6,25,0.00
2013-1-8,38.0,22.0,3.0,27.0,15.4,-2.0,87,77,53,0.00,40.00,10,4,21,0.00
2013-1-9,35.0,28.4,15.0,26.0,19.7,12.0,88,70,50,0.00,40.00,10,6,29,0.00
2013-1-10,44.0,32.3,14.0,32.0,14.4,6.0,95,54,22,0.00,40.00,10,6,20,0.17
2013-1-11,40.0,36.1,34.0,40.0,35.2,33.0,99,97,95,0.00,40.00,9,5,20,0.27
2013-1-12,41.0,22.9,10.0,41.0,17.4,2.0,99,79,67,0.00,40.00,11,7,28,0.05
2013-1-13,10.0,6.4,2.0,3.0,-0.5,-3.0,79,73,64,0.00,40.00,5,4,13,0.01
2013-1-14,10.0,3.0,-3.0,0.0,-3.5,-9.0,78,73,59,0.00,40.00,6,3,14,0.00
2013-1-15,27.0,14.7,4.0,14.0,5.2,-2.0,81,67,41,0.00,40.00,7,5,17,0.00
2013-1-16,27.0,20.5,7.0,23.0,12.1,-6.0,92,71,49,0.00,40.00,9,6,27,0.00
2013-1-17,10.0,-0.5,-12.0,-3.0,-10.1,-20.0,75,63,53,0.00,40.00,6,2,12,0.00
2013-1-18,25.0,13.3,-11.0,20.0,8.5,-17.0,89,81,73,0.00,40.00,7,3,17,0.00
2013-1-19,31.0,18.0,1.0,27.0,12.6,-7.0,90,79,61,0.00,40.00,13,6,33,0.02
2013-1-20,4.0,-4.6,-16.0,-8.0,-14.0,-24.0,72,63,46,0.00,40.00,9,4,20,0.01
2013-1-21,-9.0,-13.1,-17.0,-17.0,-24.7,-29.0,72,55,41,0.00,40.00,9,5,19,0.00
2013-1-22,1.0,-11.7,-26.0,-18.0,-23.7,-36.0,65,55,36,0.00,40.00,6,3,11,0.00
2013-1-23,8.0,-7.2,-21.0,-2.0,-15.4,-29.0,72,66,58,0.00,40.00,10,4,24,0.00
2013-1-24,5.0,-5.1,-23.0,-2.0,-15.4,-32.0,76,61,44,0.00,40.00,6,3,12,0.00
2013-1-25,15.0,9.4,0.0,8.0,2.8,-6.0,80,75,63,0.00,40.00,7,5,18,0.00
2013-1-26,20.0,8.0,-13.0,8.0,-1.0,-20.0,80,67,59,0.00,40.00,8,3,14,0.00
2013-1-27,34.0,24.3,16.0,26.0,16.1,7.0,94,72,48,0.00,40.00,8,6,18,0.02
2013-1-28,37.0,27.9,17.0,30.0,25.1,15.0,96,89,76,0.00,40.00,5,2,12,0.27
2013-1-29,32.0,30.2,26.0,32.0,28.3,22.0,98,92,83,0.00,40.00,6,4,17,0.08
2013-1-30,25.0,16.3,7.0,21.0,11.7,2.0,85,81,77,0.00,40.00,8,6,19,0.01
2013-1-31,7.0,3.0,-4.0,2.0,-4.6,-11.0,79,70,63,0.00,40.00,9,6,19,0.00
2013-2-1,1.0,-8.1,-20.0,-13.0,-19.2,-28.0,69,58,44,0.00,40.00,5,3,12,0.00
2013-2-2,16.0,0.9,-14.0,-4.0,-9.9,-21.0,74,61,40,0.00,40.00,4,2,11,0.00
2013-2-3,11.0,2.1,-11.0,-2.0,-7.4,-17.0,76,65,41,0.00,40.00,7,4,17,0.00
2013-2-4,15.0,-0.4,-25.0,-6.0,-15.2,-34.0,70,51,26,0.00,40.00,5,2,10,0.00
2013-2-5,21.0,9.9,-5.0,12.0,3.3,-11.0,86,74,53,0.00,40.00,6,3,16,0.00
2013-2-6,20.0,10.7,-12.0,17.0,6.2,-19.0,91,81,70,0.00,40.00,4,2,10,0.00
2013-2-7,23.0,20.1,17.0,19.0,16.8,12.0,91,87,79,0.00,40.00,7,3,16,0.00
2013-2-8,27.0,15.7,3.0,13.0,8.8,-2.0,87,75,52,0.00,40.00,5,2,11,0.08
2013-2-9,23.0,17.5,3.0,19.0,13.7,-2.0,93,85,71,0.00,40.00,9,6,21,0.01
2013-2-10,31.0,26.4,20.0,30.0,24.8,18.0,97,94,91,0.00,40.00,7,3,15,0.00
2013-2-11,30.0,24.5,19.0,29.0,21.6,15.0,97,89,82,0.00,40.00,8,5,16,0.00
2013-2-12,27.0,19.4,15.0,21.0,15.3,10.0,92,84,77,0.00,40.00,6,3,14,0.01
2013-2-13,42.0,27.9,18.0,27.0,21.8,15.0,90,79,56,0.00,40.00,5,3,10,0.52
2013-2-14,29.0,20.5,4.0,22.0,14.9,-2.0,91,79,63,0.00,40.00,7,4,17,0.01
2013-2-15,16.0,6.8,-1.0,3.0,-2.8,-6.0,81,66,41,0.00,40.00,8,4,18,0.01
2013-2-16,20.0,2.0,-16.0,1.0,-10.2,-23.0,78,60,30,0.00,40.00,5,2,10,0.01
2013-2-17,27.0,6.2,-21.0,8.0,-7.0,-29.0,70,55,38,0.00,40.00,10,5,22,0.01
2013-2-18,32.0,24.5,17.0,25.0,18.3,11.0,91,78,67,0.00,40.00,10,6,24,0.01
2013-2-19,15.0,4.9,-2.0,11.0,-3.4,-10.0,82,68,56,0.00,40.00,10,8,22,0.01
2013-2-20,19.0,7.3,-7.0,4.0,-0.9,-13.0,79,70,50,0.00,40.00,7,4,16,0.00
2013-2-21,31.0,11.7,-13.0,14.0,3.0,-20.0,86,69,42,0.00,40.00,6,3,16,0.01
2013-2-22,26.0,21.3,17.0,21.0,17.9,14.0,92,86,80,0.00,40.00,4,2,11,0.01
2013-2-23,32.0,25.8,20.0,25.0,22.0,18.0,94,86,69,0.00,40.00,5,2,10,0.06
2013-2-24,32.0,25.7,8.0,26.0,21.9,4.0,94,86,70,0.00,40.00,3,1,8,0.05
2013-2-25,32.0,18.2,-1.0,25.0,13.0,-6.0,90,80,72,0.00,40.00,5,2,13,0.04
2013-2-26,41.0,22.3,3.0,27.0,15.8,-2.0,93,77,52,0.00,40.00,7,3,21,0.25
2013-2-27,29.0,28.2,27.0,25.0,23.4,21.0,90,82,74,0.00,40.00,8,6,27,0.01
2013-2-28,28.0,23.0,19.0,23.0,17.6,13.0,89,80,70,0.00,40.00,8,6,22,0.00
2013-3-1,26.0,19.7,7.0,15.0,11.7,3.0,82,71,54,0.00,40.00,8,5,20,0.00
2013-3-2,31.0,9.9,-8.0,11.0,-3.3,-15.0,82,60,24,0.00,40.00,6,2,14,0.00
2013-3-3,38.0,12.1,-13.0,9.0,-3.6,-20.0,86,56,18,0.00,40.00,4,2,10,0.00
2013-3-4,35.0,21.1,6.0,17.0,4.7,-3.0,84,55,21,0.00,40.00,7,3,15,0.00
2013-3-5,29.0,23.8,19.0,19.0,13.6,6.0,90,66,40,0.00,40.00,7,4,19,0.00
2013-3-6,34.0,20.6,5.0,16.0,11.3,1.0,88,69,37,0.00,40.00,6,3,14,0.00
2013-3-7,40.0,17.1,-5.0,15.0,5.1,-11.0,86,63,32,0.00,40.00,6,2,9,0.00
2013-3-8,45.0,29.5,11.0,24.0,18.1,7.0,85,64,43,0.00,40.00,8,5,18,0.00
2013-3-9,34.0,31.5,29.0,32.0,27.8,20.0,97,87,68,0.00,40.00,7,5,18,0.27
2013-3-10,33.0,30.7,27.0,32.0,26.8,22.0,98,86,77,0.00,40.00,7,5,27,0.23
2013-3-11,27.0,23.6,20.0,24.0,20.4,17.0,93,88,76,0.00,40.00,8,6,24,0.01
2013-3-12,25.0,20.3,17.0,17.0,14.6,11.0,88,79,56,0.00,40.00,8,5,18,0.00
2013-3-13,35.0,18.5,1.0,11.0,1.2,-7.0,84,54,16,0.00,40.00,8,4,15,0.04
2013-3-14,38.0,20.8,-1.0,25.0,11.4,-6.0,82,68,41,0.00,40.00,6,3,14,0.01
2013-3-15,30.0,24.4,15.0,24.0,16.7,10.0,85,73,57,0.00,40.00,6,4,15,0.01
2013-3-16,24.0,15.9,4.0,12.0,5.6,-2.0,84,65,45,0.00,40.00,6,4,17,0.14
2013-3-17,30.0,10.3,-18.0,3.0,-8.8,-26.0,74,46,17,0.00,40.00,8,4,20,0.01
2013-3-18,30.0,21.8,15.0,25.0,15.9,6.0,86,78,55,0.00,40.00,10,7,22,0.01
2013-3-19,27.0,16.7,9.0,12.0,2.8,-3.0,82,57,30,0.00,40.00,12,9,31,0.03
2013-3-20,17.0,9.8,2.0,2.0,-2.5,-7.0,77,58,43,0.00,40.00,8,5,18,0.01
2013-3-21,34.0,17.4,5.0,9.0,5.0,0.0,82,61,34,0.00,40.00,6,3,12,0.01
2013-3-22,32.0,16.0,-2.0,19.0,7.4,-7.0,85,70,47,0.00,40.00,4,2,12,0.01
2013-3-23,38.0,21.7,2.0,19.0,13.2,-3.0,88,71,45,0.00,40.00,5,2,14,0.00
2013-3-24,33.0,23.9,14.0,24.0,17.2,11.0,87,76,63,0.00,40.00,9,4,22,0.00
2013-3-25,33.0,24.6,12.0,22.0,17.7,9.0,88,75,53,0.00,40.00,7,4,18,0.00
2013-3-26,42.0,30.4,22.0,21.0,19.0,14.0,88,65,37,0.00,40.00,6,2,13,0.00
2013-3-27,46.0,33.7,26.0,22.0,16.5,11.0,80,55,25,0.00,40.00,6,2,16,0.00
2013-3-28,50.0,37.8,21.0,21.0,14.4,11.0,82,45,21,0.00,40.00,7,3,14,0.00
2013-3-29,52.0,33.8,11.0,24.0,16.3,7.0,88,55,23,0.00,40.00,7,3,14,0.00
2013-3-30,48.0,37.5,32.0,39.0,31.2,-99.9,97,83,52,0.00,40.00,6,3,14,0.38
2013-3-31,35.0,30.2,23.0,30.0,19.0,5.0,97,67,33,0.00,40.00,13,6,30,0.03
2013-4-1,32.0,24.2,18.0,13.0,3.5,-1.0,81,42,25,0.00,40.00,10,6,23,0.03
2013-4-2,36.0,23.7,12.0,10.0,5.2,0.0,75,48,22,0.00,40.00,8,4,16,0.00
2013-4-3,46.0,25.8,2.0,18.0,5.5,-3.0,84,49,16,0.00,40.00,11,4,23,0.00
2013-4-4,47.0,39.7,30.0,30.0,20.3,12.0,64,47,29,0.00,40.00,10,6,21,0.00
2013-4-5,43.0,32.7,16.0,20.0,12.9,8.0,82,47,24,0.00,40.00,7,3,16,0.00
2013-4-6,41.0,32.8,30.0,34.0,29.5,27.0,95,88,72,0.00,40.00,10,6,21,0.20
2013-4-7,40.0,33.4,28.0,31.0,29.0,27.0,96,85,63,0.00,40.00,6,3,11,0.20
2013-4-8,40.0,34.8,29.0,36.0,33.3,28.0,98,95,84,0.00,40.00,6,2,10,0.62
2013-4-9,39.0,33.9,30.0,33.0,25.7,15.0,99,75,38,0.00,40.00,10,4,23,0.02
2013-4-10,39.0,33.1,27.0,24.0,19.0,12.0,78,57,39,0.00,40.00,7,5,15,0.00
2013-4-11,32.0,29.4,25.0,27.0,20.5,11.0,90,71,42,0.00,40.00,7,5,22,0.07
2013-4-12,36.0,28.1,24.0,27.0,23.8,21.0,91,84,65,0.00,40.00,7,4,16,0.27
2013-4-13,37.0,26.8,16.0,22.0,19.5,13.0,90,76,52,0.00,40.00,6,3,13,0.23
2013-4-14,43.0,25.2,6.0,31.0,18.5,2.0,95,78,39,0.00,40.00,9,4,22,0.01
2013-4-15,39.0,34.7,32.0,32.0,28.2,24.0,97,78,62,0.00,40.00,10,6,25,0.59
2013-4-16,47.0,36.6,26.0,29.0,25.1,20.0,88,66,36,0.00,40.00,7,4,16,0.01
2013-4-17,40.0,31.7,24.0,29.0,25.0,21.0,94,77,56,0.00,40.00,5,3,15,0.00
2013-4-18,34.0,30.7,29.0,31.0,29.0,27.0,97,94,89,0.00,40.00,8,6,24,0.15
2013-4-19,28.0,25.5,18.0,27.0,22.3,14.0,95,87,79,0.00,40.00,12,8,28,0.01
2013-4-20,40.0,22.2,1.0,21.0,10.5,-3.0,90,65,30,0.00,40.00,7,3,16,0.66
2013-4-21,38.0,28.9,13.0,34.0,23.7,10.0,94,82,69,0.00,40.00,12,7,27,0.20
2013-4-22,50.0,37.8,30.0,36.0,27.7,16.0,98,72,31,0.00,40.00,8,4,16,0.21
2013-4-23,45.0,32.8,20.0,29.0,24.1,15.0,96,74,35,0.00,40.00,8,5,17,0.40
2013-4-24,50.0,31.9,11.0,33.0,20.5,8.0,96,68,31,0.00,40.00,8,3,26,0.02
2013-4-25,49.0,36.3,20.0,31.0,22.5,16.0,96,63,28,0.00,40.00,7,3,18,0.11
2013-4-26,68.0,48.2,34.0,38.0,32.1,24.0,91,58,33,0.00,40.00,8,4,17,0.09
2013-4-27,72.0,50.1,28.0,40.0,32.5,27.0,96,61,22,0.00,40.00,7,2,15,0.02
2013-4-28,71.0,55.4,38.0,51.0,41.1,34.0,98,64,32,0.00,40.00,10,5,23,0.26
2013-4-29,73.0,52.3,34.0,45.0,39.4,34.0,99,68,28,0.00,40.00,5,2,12,0.28
2013-4-30,77.0,59.4,40.0,55.0,40.1,27.0,99,54,28,0.00,40.00,9,5,26,0.01
2013-5-1,48.0,37.4,31.0,39.0,32.4,28.0,96,84,55,0.00,40.00,7,3,13,0.20
2013-5-2,31.0,29.3,28.0,30.0,26.8,26.0,95,91,82,0.00,40.00,7,5,18,0.01
2013-5-3,29.0,28.3,27.0,27.0,25.8,24.0,93,90,86,0.00,40.00,6,5,18,0.00
2013-5-4,38.0,32.6,29.0,34.0,31.0,27.0,98,94,87,0.00,40.00,5,4,15,0.58
2013-5-5,52.0,38.3,31.0,38.0,34.3,30.0,99,86,59,0.00,40.00,6,3,11,0.36
2013-5-6,73.0,50.6,27.0,41.0,34.9,26.0,97,64,29,0.00,40.00,4,1,9,0.09
2013-5-7,78.0,53.5,31.0,44.0,35.7,30.0,97,62,21,0.00,40.00,5,2,11,0.00
2013-5-8,78.0,57.0,34.0,50.0,42.1,34.0,99,64,28,0.00,40.00,5,2,12,0.00
2013-5-9,55.0,40.4,35.0,47.0,36.3,27.0,96,86,66,0.00,40.00,7,5,20,0.25
2013-5-10,57.0,43.3,30.0,28.0,25.0,22.0,93,53,26,0.00,40.00,6,4,17,0.03
2013-5-11,42.0,37.7,35.0,34.0,24.9,-99.9,91,63,47,0.00,40.00,12,8,26,0.05
2013-5-12,50.0,39.3,27.0,19.0,16.1,10.0,71,41,20,0.00,40.00,9,6,23,0.01
2013-5-13,58.0,42.3,19.0,32.0,22.0,16.0,92,51,22,0.00,40.00,9,4,21,0.00
2013-5-14,85.0,63.0,35.0,47.0,39.5,32.0,88,47,20,0.00,40.00,10,5,23,0.00
2013-5-15,77.0,62.8,51.0,46.0,39.6,32.0,73,46,19,0.00,40.00,9,6,24,0.00
2013-5-16,70.0,52.7,45.0,47.0,17.1,-99.9,95,46,20,0.00,40.00,7,3,17,0.00
2013-5-17,73.0,57.0,44.0,49.0,32.1,-99.9,72,47,32,0.00,40.00,9,4,17,0.00
2013-5-18,72.0,58.7,51.0,62.0,54.7,47.0,100,87,66,0.00,40.00,8,4,15,1.55
2013-5-19,83.0,64.8,53.0,63.0,58.3,51.0,100,83,44,0.00,40.00,9,4,18,0.94
2013-5-20,72.0,57.8,42.0,61.0,54.3,42.0,100,90,57,0.00,40.00,9,4,20,1.96
2013-5-21,49.0,42.3,39.0,44.0,41.0,39.0,100,95,84,0.00,40.00,8,5,15,0.88
2013-5-22,47.0,42.6,39.0,46.0,41.2,38.0,99,95,85,0.00,40.00,9,5,22,0.22
2013-5-23,53.0,42.6,30.0,38.0,29.8,24.0,95,64,32,0.00,40.00,8,6,20,0.02
2013-5-24,68.0,47.7,25.0,38.0,30.2,24.0,98,60,24,0.00,40.00,7,3,12,0.00
2013-5-25,67.0,53.1,38.0,43.0,39.2,35.0,98,65,30,0.00,40.00,8,3,15,0.00
2013-5-26,70.0,54.2,36.0,44.0,34.0,28.0,99,57,21,0.00,40.00,9,4,20,0.00
2013-5-27,69.0,56.2,40.0,43.0,39.8,37.0,93,58,35,0.00,40.00,10,6,26,0.00
2013-5-28,65.0,58.4,53.0,54.0,48.3,41.0,92,69,58,0.00,40.00,7,4,14,0.00
2013-5-29,82.0,64.6,55.0,64.0,56.6,52.0,100,79,38,0.00,40.00,8,4,20,0.01
2013-5-30,79.0,68.7,60.0,67.0,62.2,59.0,99,82,57,0.00,40.00,10,6,25,0.18
2013-5-31,79.0,66.1,54.0,60.0,56.2,48.0,97,73,44,0.00,40.00,10,7,25,0.20
2013-6-1,70.0,53.3,40.0,59.0,50.9,39.0,99,92,67,0.00,40.00,7,3,20,0.20
2013-6-2,63.0,47.6,38.0,42.0,38.0,34.0,98,74,35,0.00,40.00,7,4,22,0.07
2013-6-3,64.0,49.8,31.0,40.0,34.3,27.0,99,62,29,0.00,40.00,7,2,14,0.01
2013-6-4,63.0,53.8,47.0,52.0,43.1,31.0,99,69,49,0.00,40.00,5,3,13,0.09
2013-6-5,54.0,50.7,50.0,51.0,49.5,49.0,99,96,89,0.00,40.00,7,4,14,0.85
2013-6-6,55.0,50.2,47.0,50.0,48.3,45.0,99,93,82,0.00,40.00,5,2,10,0.22
2013-6-7,67.0,53.9,38.0,48.0,43.5,35.0,100,73,37,0.00,40.00,5,1,10,0.01
2013-6-8,73.0,58.2,45.0,55.0,49.3,44.0,99,76,39,0.00,40.00,7,2,13,0.08
2013-6-9,62.0,54.2,45.0,58.0,52.2,45.0,100,93,76,0.00,40.00,6,3,13,0.17
2013-6-10,78.0,65.4,56.0,61.0,58.2,55.0,99,79,52,0.00,40.00,5,3,11,0.01
2013-6-11,80.0,65.2,51.0,63.0,55.6,47.0,100,76,32,0.00,40.00,7,2,15,0.00
2013-6-12,79.0,64.6,46.0,54.0,49.3,46.0,100,64,35,0.00,40.00,5,2,14,0.00
2013-6-13,70.0,60.0,47.0,50.0,47.6,45.0,98,66,41,0.00,40.00,8,4,16,0.00
2013-6-14,78.0,60.4,41.0,52.0,46.8,41.0,99,67,35,0.00,40.00,5,2,15,0.00
2013-6-15,71.0,63.1,54.0,65.0,59.9,53.0,99,89,71,0.00,40.00,5,2,12,0.08
2013-6-16,79.0,63.1,45.0,59.0,52.7,45.0,100,74,35,0.00,40.00,9,3,23,0.16
2013-6-17,64.0,54.0,41.0,57.0,50.1,40.0,100,88,67,0.00,40.00,6,3,14,0.12
2013-6-18,73.0,55.9,37.0,44.0,40.6,37.0,99,64,30,0.00,40.00,7,3,14,0.01
2013-6-19,78.0,60.6,39.0,57.0,48.8,39.0,99,70,39,0.00,40.00,6,3,13,0.00
2013-6-20,77.0,64.8,52.0,65.0,59.4,52.0,99,84,67,0.00,40.00,5,3,12,0.29
2013-6-22,73.0,68.2,61.0,68.0,64.9,61.0,99,89,79,0.00,40.00,5,2,10,0.04
2013-6-23,82.0,70.7,61.0,69.0,63.6,61.0,100,80,54,0.00,40.00,10,4,23,0.01
2013-6-24,83.0,70.3,54.0,68.0,60.5,54.0,100,75,44,0.00,40.00,7,2,15,0.00
2013-6-25,87.0,72.6,57.0,68.0,63.6,57.0,100,77,46,0.00,40.00,5,2,11,0.00
2013-6-26,83.0,70.0,59.0,72.0,66.8,59.0,100,91,66,0.00,40.00,8,2,17,0.53
2013-6-27,82.0,70.7,59.0,67.0,61.2,55.0,100,75,43,0.00,40.00,9,3,20,0.08
2013-6-28,67.0,62.8,57.0,63.0,59.1,55.0,96,88,67,0.00,40.00,7,4,14,0.16
2013-6-29,68.0,60.5,48.0,57.0,53.1,44.0,100,79,49,0.00,40.00,7,4,18,0.07
2013-6-30,79.0,63.4,46.0,55.0,48.8,45.0,99,66,32,0.00,40.00,6,2,13,0.00
2013-7-1,77.0,62.3,43.0,56.0,50.9,42.0,99,71,42,0.00,40.00,6,2,13,0.00
2013-7-2,76.0,58.1,37.0,52.0,41.2,34.0,99,63,22,0.00,40.00,5,2,14,0.00
2013-7-3,83.0,63.2,39.0,59.0,47.8,39.0,99,66,27,0.00,40.00,5,2,9,0.00
2013-7-4,83.0,69.3,52.0,61.0,57.4,52.0,99,69,43,0.00,40.00,8,4,17,0.00
2013-7-5,85.0,74.9,61.0,61.0,58.7,55.0,91,60,37,0.00,40.00,9,6,21,0.00
2013-7-6,86.0,73.9,67.0,73.0,63.5,58.0,96,71,51,0.00,40.00,7,5,17,0.05
2013-7-7,84.0,72.8,57.0,71.0,67.2,56.0,98,84,64,0.00,40.00,6,4,15,0.62
2013-7-8,80.0,62.2,55.0,68.0,58.2,-99.9,100,91,67,0.00,40.00,6,2,14,0.32
2013-7-9,76.0,65.7,54.0,71.0,64.1,54.0,100,94,84,0.00,40.00,7,2,15,0.25
2013-7-10,74.0,63.3,55.0,62.0,51.9,-99.9,99,73,45,0.00,40.00,8,5,24,0.10
2013-7-11,81.0,65.9,47.0,63.0,53.6,47.0,100,71,36,0.00,40.00,5,2,13,0.00
2013-7-12,84.0,71.4,56.0,62.0,58.3,55.0,97,66,43,0.00,40.00,9,6,24,0.00
2013-7-13,79.0,71.9,63.0,67.0,61.6,57.0,95,70,63,0.00,40.00,7,5,17,0.01
2013-7-14,84.0,71.2,63.0,70.0,63.3,60.0,99,78,49,0.00,40.00,7,3,17,0.07
2013-7-15,86.0,71.8,57.0,69.0,62.7,57.0,100,77,45,0.00,40.00,5,2,12,0.01
2013-7-16,89.0,82.8,68.0,71.0,69.0,67.0,98,65,52,0.00,40.00,7,4,18,0.06
2013-7-17,89.0,77.5,63.0,71.0,67.7,63.0,99,75,47,0.00,40.00,7,3,15,0.00
2013-7-18,90.0,80.5,66.0,71.0,68.3,66.0,100,69,49,0.00,40.00,11,5,27,0.00
2013-7-19,80.0,74.9,57.0,72.0,64.4,54.0,98,72,44,0.00,40.00,8,5,20,0.14
2013-7-20,70.0,61.3,47.0,58.0,49.7,-99.9,97,70,45,0.00,40.00,5,3,13,0.01
2013-7-21,74.0,61.4,43.0,60.0,53.2,42.0,99,77,54,0.00,40.00,5,2,11,0.00
2013-7-22,81.0,67.5,58.0,69.0,60.5,51.0,98,80,54,0.00,40.00,9,6,18,0.00
2013-7-23,69.0,59.5,47.0,55.0,48.7,46.0,98,70,45,0.00,40.00,7,4,15,0.00
2013-7-24,73.0,59.0,43.0,57.0,49.8,43.0,99,76,47,0.00,40.00,6,2,14,0.00
2013-7-25,79.0,65.0,54.0,61.0,56.7,52.0,99,77,47,0.00,40.00,5,3,13,0.41
2013-7-26,65.0,53.8,46.0,59.0,51.7,45.0,100,93,75,0.00,40.00,7,3,17,0.47
2013-7-27,54.0,48.4,43.0,49.0,45.8,42.0,97,91,78,0.00,40.00,7,5,16,0.16
2013-7-28,59.0,53.0,47.0,56.0,50.9,46.0,99,93,80,0.00,40.00,7,4,17,0.09
2013-7-29,76.0,58.2,40.0,60.0,50.5,40.0,99,79,45,0.00,40.00,4,1,9,0.01
2013-7-30,70.0,61.9,54.0,62.0,58.0,54.0,99,88,68,0.00,40.00,6,3,15,0.00
2013-7-31,76.0,66.7,58.0,63.0,57.4,47.0,99,76,38,0.00,40.00,9,4,19,0.00
2013-8-1,74.0,60.0,46.0,58.0,52.0,46.0,99,79,48,0.00,40.00,7,2,14,0.00
2013-8-2,74.0,61.1,47.0,58.0,52.2,47.0,99,76,45,0.00,40.00,7,3,18,0.03
2013-8-3,72.0,59.3,46.0,54.0,49.7,46.0,99,75,43,0.00,40.00,7,3,16,0.01
2013-8-4,71.0,57.4,41.0,56.0,48.3,41.0,99,76,45,0.00,40.00,4,1,9,0.00
2013-8-5,71.0,58.5,47.0,64.0,56.9,47.0,100,95,76,0.00,40.00,4,2,12,1.25
2013-8-6,75.0,66.2,60.0,64.0,60.5,57.0,99,84,53,0.00,40.00,5,3,12,0.05
2013-8-7,72.0,62.7,47.0,62.0,53.2,45.0,99,76,40,0.00,40.00,7,4,17,0.05
2013-8-8,72.0,57.4,42.0,60.0,52.4,42.0,100,85,51,0.00,40.00,6,2,18,0.14
2013-8-9,69.0,58.6,47.0,56.0,51.1,47.0,100,79,49,0.00,40.00,7,2,17,0.14
2013-8-10,73.0,61.0,50.0,58.0,53.9,50.0,100,80,51,0.00,40.00,5,2,9,0.00
2013-8-11,77.0,59.8,44.0,60.0,52.2,44.0,100,80,45,0.00,40.00,5,1,11,0.00
2013-8-12,75.0,60.1,43.0,60.0,53.0,42.0,100,81,50,0.00,40.00,7,3,18,0.01
2013-8-13,65.0,53.2,41.0,53.0,44.7,-99.9,99,78,54,0.00,40.00,5,2,12,0.01
2013-8-14,71.0,53.2,37.0,53.0,45.2,37.0,99,79,41,0.00,40.00,7,2,15,0.00
2013-8-15,78.0,54.4,43.0,60.0,39.4,-99.9,99,74,40,0.00,40.00,5,2,13,0.00
2013-8-16,81.0,61.5,45.0,61.0,48.2,-99.9,99,72,35,0.00,40.00,5,2,11,0.00
2013-8-17,80.0,64.3,46.0,59.0,50.6,-99.9,100,69,41,0.00,40.00,7,3,17,0.00
2013-8-18,80.0,65.1,47.0,59.0,53.0,47.0,99,70,40,0.00,40.00,8,4,19,0.00
2013-8-19,83.0,66.0,58.0,66.0,50.6,-99.9,91,74,56,0.00,40.00,8,4,19,0.00
2013-8-20,87.0,73.7,63.0,69.0,64.2,-99.9,98,77,54,0.00,40.00,7,4,18,0.00
2013-8-21,82.0,72.8,59.0,74.0,68.2,59.0,99,86,64,0.00,40.00,7,3,14,0.01
2013-8-22,78.0,66.1,47.0,58.0,51.2,46.0,100,65,33,0.00,40.00,6,3,13,0.01
2013-8-23,82.0,61.6,41.0,59.0,48.5,41.0,99,71,29,0.00,40.00,5,2,13,0.00
2013-8-24,83.0,71.2,54.0,68.0,60.0,-99.9,99,72,52,0.00,40.00,11,6,24,0.00
2013-8-25,93.0,81.4,72.0,72.0,70.6,69.0,91,72,49,0.00,40.00,8,5,22,0.00
2013-8-26,86.0,76.6,69.0,76.0,72.4,67.0,99,88,72,0.00,40.00,5,3,28,2.27
2013-8-27,79.0,71.3,68.0,72.0,69.7,68.0,99,95,80,0.00,40.00,5,2,28,3.09
2013-8-28,84.0,76.0,67.0,72.0,66.9,61.0,99,76,46,0.00,40.00,5,1,10,0.00
2013-8-29,83.0,69.9,62.0,71.0,67.1,62.0,100,92,66,0.00,40.00,9,4,20,0.96
2013-8-30,77.0,68.6,55.0,70.0,64.5,55.0,100,88,63,0.00,40.00,6,3,16,0.94
2013-8-31,83.0,65.9,52.0,66.0,58.8,-99.9,100,82,53,0.00,40.00,6,2,14,0.05
2013-9-1,74.0,64.7,56.0,62.0,58.7,53.0,98,82,59,0.00,40.00,9,5,20,0.05
2013-9-2,61.0,52.7,43.0,52.0,48.5,43.0,99,86,63,0.00,40.00,7,4,14,0.03
2013-9-3,74.0,55.3,39.0,55.0,47.7,39.0,99,79,51,0.00,40.00,6,2,13,0.01
2013-9-4,69.0,59.0,45.0,58.0,53.1,45.0,100,83,55,0.00,40.00,6,3,13,0.00
2013-9-5,77.0,57.4,39.0,57.0,46.0,39.0,99,72,35,0.00,40.00,5,2,10,0.00
2013-9-6,83.0,65.9,51.0,68.0,60.5,50.0,99,84,58,0.00,40.00,5,3,15,0.00
2013-9-7,82.0,65.4,57.0,70.0,61.1,-99.9,99,89,65,0.00,40.00,7,2,16,0.00
2013-9-8,69.0,57.6,43.0,59.0,51.6,43.0,99,83,52,0.00,40.00,7,2,13,0.00
2013-9-9,80.0,66.1,59.0,72.0,63.8,56.0,99,93,75,0.00,40.00,6,2,13,0.20
2013-9-10,76.0,68.7,62.0,69.0,65.8,61.0,100,91,70,0.00,40.00,5,2,14,0.08
2013-9-11,76.0,63.7,53.0,64.0,57.3,52.0,100,83,46,0.00,40.00,7,3,20,0.06
2013-9-12,62.0,53.9,39.0,55.0,48.8,38.0,99,85,53,0.00,40.00,8,4,21,0.06
2013-9-13,65.0,48.0,35.0,48.0,41.5,35.0,99,82,46,0.00,40.00,5,1,10,0.01
2013-9-14,70.0,51.6,37.0,56.0,45.1,-99.9,99,83,48,0.00,40.00,8,2,17,0.10
2013-9-15,54.0,48.3,34.0,53.0,47.1,34.0,99,96,87,0.00,40.00,6,2,19,0.21
2013-9-16,64.0,45.1,29.0,45.0,36.8,29.0,98,78,42,0.00,40.00,4,1,13,0.01
2013-9-17,68.0,52.9,39.0,50.0,42.9,37.0,97,72,41,0.00,40.00,8,5,17,0.01
2013-9-18,65.0,57.4,55.0,64.0,55.8,52.0,98,95,86,0.00,40.00,6,5,14,0.07
2013-9-19,74.0,67.0,64.0,70.0,65.6,63.0,99,95,86,0.00,40.00,7,4,20,0.60
2013-9-20,65.0,57.7,45.0,64.0,53.9,44.0,97,87,66,0.00,40.00,8,4,18,0.09
2013-9-21,57.0,47.1,34.0,45.0,38.6,-99.9,98,76,50,0.00,40.00,9,4,17,0.00
2013-9-22,64.0,44.4,29.0,46.0,36.9,29.0,98,79,43,0.00,40.00,6,2,13,0.00
2013-9-23,69.0,54.8,43.0,50.0,45.8,41.0,95,74,47,0.00,40.00,8,6,18,0.00
2013-9-24,74.0,55.0,40.0,52.0,46.3,39.0,99,78,39,0.00,40.00,6,3,12,0.00
2013-9-25,74.0,52.6,37.0,54.0,45.9,37.0,99,82,43,0.00,40.00,6,2,11,0.01
2013-9-26,74.0,55.5,40.0,52.0,47.2,40.0,99,77,41,0.00,40.00,7,4,17,0.01
2013-9-27,77.0,65.9,57.0,58.0,53.3,49.0,80,65,52,0.00,40.00,11,7,23,0.00
2013-9-28,71.0,59.5,50.0,62.0,50.5,-99.9,95,76,54,0.00,40.00,10,7,29,0.28
2013-9-29,71.0,53.1,39.0,49.0,43.8,38.0,99,76,37,0.00,40.00,6,3,16,0.03
2013-9-30,72.0,60.7,53.0,51.0,47.1,45.0,77,62,45,0.00,40.00,12,7,30,0.01
2013-10-1,59.0,53.3,49.0,39.0,36.4,35.0,69,54,40,0.00,40.00,3,2,10,0.00
2013-10-2,75.0,54.5,34.0,50.0,37.9,32.0,98,63,21,0.00,40.00,4,2,12,0.10
2013-10-3,56.0,52.2,50.0,52.0,50.8,49.0,99,96,85,0.00,40.00,4,3,11,0.61
2013-10-4,58.0,52.4,50.0,52.0,50.2,49.0,97,92,79,0.00,40.00,6,4,15,0.27
2013-10-5,56.0,52.5,50.0,55.0,51.7,49.0,99,98,95,0.00,40.00,5,3,12,1.02
2013-10-6,56.0,49.8,44.0,53.0,48.5,43.0,99,95,78,0.00,40.00,7,3,16,0.60
2013-10-7,59.0,45.8,33.0,45.0,39.7,32.0,99,83,46,0.00,40.00,6,3,12,0.05
2013-10-8,73.0,53.9,31.0,44.0,38.8,31.0,99,64,30,0.00,40.00,11,6,26,0.01
2013-10-9,73.0,62.1,51.0,49.0,46.1,43.0,85,57,40,0.00,40.00,10,6,20,0.00
2013-10-10,73.0,59.7,40.0,47.0,43.5,39.0,98,60,33,0.00,40.00,8,4,16,0.00
2013-10-11,73.0,60.6,44.0,54.0,49.2,43.0,96,69,44,0.00,40.00,13,7,29,0.00
2013-10-12,63.0,54.5,45.0,54.0,43.4,-99.9,94,68,54,0.00,40.00,11,8,25,0.00
2013-10-13,56.0,46.1,29.0,43.0,35.3,27.0,97,71,33,0.00,40.00,6,4,14,0.00
2013-10-14,54.0,41.7,27.0,37.0,32.4,26.0,97,73,48,0.00,40.00,4,2,10,0.00
2013-10-15,49.0,47.2,44.0,48.0,45.0,37.0,98,93,65,0.00,40.00,7,4,21,1.14
2013-10-16,45.0,40.2,30.0,44.0,37.5,29.0,97,90,68,0.00,40.00,7,4,18,0.44
2013-10-17,50.0,37.8,27.0,42.0,34.9,26.0,98,91,65,0.00,40.00,4,1,8,0.05
2013-10-18,48.0,40.2,31.0,41.0,34.9,26.0,98,83,44,0.00,40.00,8,3,18,0.24
2013-10-19,40.0,35.8,30.0,37.0,32.5,-99.9,98,92,80,0.00,40.00,5,2,11,0.14
2013-10-20,38.0,30.6,25.0,35.0,29.4,24.0,97,96,88,0.00,40.00,4,2,8,0.11
2013-10-21,34.0,31.0,29.0,32.0,27.7,25.0,98,88,74,0.00,40.00,7,5,18,0.07
2013-10-22,35.0,32.5,27.0,30.0,28.1,25.0,94,84,72,0.00,40.00,7,4,15,0.14
2013-10-23,34.0,30.7,26.0,28.0,24.1,19.0,93,77,54,0.00,40.00,6,4,12,0.05
2013-10-24,36.0,32.5,29.0,29.0,26.9,24.0,93,80,62,0.00,40.00,6,4,13,0.09
2013-10-25,49.0,36.4,21.0,37.0,28.0,19.0,94,73,50,0.00,40.00,10,4,24,0.01
2013-10-26,47.0,38.1,32.0,35.0,30.1,-99.9,93,76,58,0.00,40.00,9,5,21,0.06
2013-10-27,49.0,37.6,30.0,32.0,28.7,26.0,90,72,48,0.00,40.00,7,4,19,0.01
2013-10-28,41.0,31.7,22.0,28.0,19.2,-99.9,92,65,37,0.00,40.00,6,4,18,0.01
2013-10-29,35.0,29.1,19.0,32.0,25.8,17.0,96,88,67,0.00,40.00,5,2,11,0.05
2013-10-30,48.0,40.0,33.0,48.0,39.3,32.0,99,98,97,0.00,40.00,7,3,12,0.09
2013-10-31,50.0,46.7,43.0,50.0,46.6,42.0,100,99,98,0.00,40.00,5,2,11,0.12
2013-11-1,43.0,39.1,36.0,42.0,37.9,34.0,99,96,92,0.00,40.00,7,4,14,0.06
2013-11-2,45.0,34.0,23.0,33.0,27.7,-99.9,96,82,46,0.00,40.00,5,2,11,0.01
2013-11-3,47.0,33.8,19.0,33.0,26.4,17.0,96,76,53,0.00,40.00,11,6,25,0.00
2013-11-4,42.0,40.9,34.0,41.0,36.2,31.0,96,84,65,0.00,40.00,11,8,27,0.16
2013-11-5,45.0,34.3,24.0,32.0,28.6,23.0,97,82,52,0.00,40.00,6,2,13,0.03
2013-11-6,35.0,29.9,19.0,31.0,26.6,18.0,96,88,73,0.00,40.00,6,4,15,0.22
2013-11-7,36.0,24.8,13.0,25.0,19.2,10.0,93,80,64,0.00,40.00,5,2,11,0.09
2013-11-8,35.0,26.6,10.0,31.0,22.3,7.0,93,84,74,0.00,40.00,9,4,20,0.04
2013-11-9,36.0,34.0,33.0,35.0,30.0,-99.9,97,89,78,0.00,40.00,9,6,22,0.15
2013-11-10,41.0,35.5,31.0,30.0,25.8,24.0,93,68,52,0.00,40.00,9,6,21,0.02
2013-11-11,32.0,21.4,15.0,30.0,10.3,6.0,92,62,48,0.00,40.00,10,7,25,0.01
2013-11-12,27.0,19.1,11.0,7.0,4.9,2.0,78,55,35,0.00,40.00,7,5,14,0.00
2013-11-13,46.0,31.4,16.0,30.0,19.0,7.0,78,61,43,0.00,40.00,10,6,24,0.00
2013-11-14,45.0,35.3,27.0,32.0,29.4,26.0,95,79,59,0.00,40.00,4,2,9,0.00
2013-11-15,51.0,36.5,25.0,36.0,30.9,24.0,97,82,54,0.00,40.00,6,3,15,0.00
2013-11-16,46.0,40.7,37.0,46.0,36.1,-99.9,100,87,74,0.00,40.00,9,5,19,0.53
2013-11-17,49.0,40.2,30.0,49.0,38.6,28.0,100,94,84,0.00,40.00,11,6,29,0.22
2013-11-18,29.0,26.0,24.0,26.0,18.1,16.0,87,72,65,0.00,40.00,12,8,25,0.01
2013-11-19,39.0,29.1,12.0,18.0,16.4,9.0,90,61,41,0.00,40.00,11,6,27,0.00
2013-11-20,41.0,36.8,32.0,30.0,22.7,16.0,93,59,40,0.00,40.00,11,8,25,0.00
2013-11-21,34.0,28.3,22.0,34.0,25.8,16.0,99,89,77,0.00,40.00,8,5,18,0.01
2013-11-22,31.0,21.3,11.0,16.0,8.8,-2.0,85,61,32,0.00,40.00,11,6,22,0.01
2013-11-23,14.0,8.1,1.0,5.0,-3.5,-99.9,79,60,43,0.00,40.00,10,6,23,0.01
2013-11-24,24.0,9.7,-7.0,12.0,-1.4,-13.0,79,62,48,0.00,40.00,12,6,25,0.00
2013-11-25,36.0,29.5,24.0,25.0,20.1,13.0,76,68,58,0.00,40.00,9,6,29,0.00
2013-11-26,26.0,14.2,11.0,14.0,5.1,0.0,82,67,48,0.00,40.00,9,6,21,0.00
2013-11-27,23.0,17.0,12.0,15.0,11.4,8.0,88,78,56,0.00,40.00,6,3,13,0.00
2013-11-28,23.0,17.4,13.0,15.0,12.7,10.0,89,82,63,0.00,40.00,5,2,11,0.00
2013-11-29,24.0,15.8,-1.0,16.0,9.5,-5.0,87,76,63,0.00,40.00,9,4,19,0.00
2013-11-30,37.0,27.7,24.0,24.0,18.9,-99.9,81,72,59,0.00,40.00,6,3,17,0.06
2013-12-1,33.0,28.8,26.0,26.0,23.7,21.0,89,81,73,0.00,40.00,4,2,8,0.01
2013-12-2,33.0,27.0,16.0,28.0,24.0,14.0,94,88,82,0.00,40.00,8,4,17,0.01
2013-12-3,30.0,27.8,24.0,29.0,26.1,22.0,96,93,90,0.00,40.00,6,4,14,0.00
2013-12-4,32.0,27.6,24.0,31.0,26.0,22.0,98,94,90,0.00,40.00,6,3,14,0.00
2013-12-5,23.0,8.0,-3.0,21.0,2.5,-9.0,92,78,72,0.00,40.00,8,6,23,0.00
2013-12-6,5.0,-3.8,-10.0,-4.0,-10.7,-17.0,76,71,66,0.00,40.00,5,3,11,0.00
2013-12-7,-2.0,-8.6,-21.0,-11.0,-18.5,-99.9,71,65,63,0.00,40.00,6,4,14,0.00
2013-12-8,7.0,1.5,-17.0,3.0,-4.3,-25.0,82,76,67,0.00,40.00,4,2,8,0.00
2013-12-9,7.0,-1.1,-14.0,3.0,-7.6,-22.0,82,73,63,0.00,40.00,6,3,21,0.00
2013-12-10,5.0,-3.6,-13.0,-4.0,-10.8,-20.0,74,70,64,0.00,40.00,6,3,17,0.00
2013-12-11,-3.0,-9.2,-15.0,-12.0,-17.3,-23.0,79,67,57,0.00,40.00,5,4,16,0.00
2013-12-12,9.0,1.5,-11.0,3.0,-5.0,-18.0,79,73,66,0.00,40.00,5,3,10,0.00
2013-12-13,10.0,4.6,0.0,2.0,-1.5,-6.0,80,75,68,0.00,40.00,4,3,10,0.00
2013-12-14,16.0,7.8,1.0,10.0,1.3,-99.9,86,77,72,0.00,40.00,6,3,14,0.00
2013-12-15,4.0,-6.8,-21.0,-2.0,-14.8,-29.0,77,68,57,0.00,40.00,6,4,15,0.00
2013-12-16,9.0,1.0,-18.0,5.0,-4.9,-26.0,85,76,66,0.00,40.00,8,4,17,0.00
2013-12-17,23.0,15.8,9.0,20.0,11.8,2.0,91,84,71,0.00,40.00,6,4,15,0.00
2013-12-18,25.0,6.9,-11.0,15.0,0.6,-17.0,88,76,60,0.00,40.00,7,3,15,0.01
2013-12-19,16.0,13.1,6.0,11.0,8.8,2.0,87,82,75,0.00,40.00,8,4,16,0.01
2013-12-20,22.0,10.8,-3.0,13.0,5.6,-8.0,85,79,67,0.00,40.00,4,1,9,0.01
2013-12-21,20.0,14.1,5.0,14.0,8.7,-99.9,87,82,73,0.00,40.00,3,1,8,0.01
2013-12-22,23.0,19.3,16.0,19.0,16.2,12.0,92,88,84,0.00,40.00,5,3,13,0.00
2013-12-23,17.0,12.4,4.0,13.0,8.0,-1.0,87,82,74,0.00,40.00,6,3,15,0.00
2013-12-24,12.0,3.3,-17.0,5.0,-2.6,-24.0,81,76,69,0.00,40.00,8,4,19,0.00
2013-12-25,16.0,10.6,6.0,11.0,5.5,1.0,85,79,74,0.00,40.00,6,4,15,0.00
2013-12-26,15.0,6.9,-1.0,8.0,1.7,-6.0,86,79,67,0.00,40.00,3,1,6,0.00
2013-12-27,29.0,20.9,9.0,26.0,18.5,6.0,95,90,85,0.00,40.00,8,4,20,0.00
2013-12-28,31.0,25.4,15.0,30.0,22.5,-99.9,96,92,86,0.00,40.00,10,4,25,0.00
2013-12-29,14.0,0.4,-16.0,10.0,-6.4,-23.0,84,72,61,0.00,40.00,9,6,21,0.00
2013-12-30,-3.0,-9.6,-26.0,-13.0,-18.6,-34.0,71,64,52,0.00,40.00,4,1,8,0.00
2013-12-31,-6.0,-14.8,-25.0,-17.0,-23.6,-34.0,71,64,56,0.00,40.00,5,2,10,0.00
2014-1-1,1.0,-8.5,-22.0,-7.0,-15.9,-30.0,73,69,64,0.00,40.00,4,2,7,0.00
2014-1-2,6.0,-7.2,-22.0,-5.0,-15.4,-29.0,73,67,55,0.00,40.00,5,2,10,0.00